sensor_id;sensor_type;location;lat;lon;timestamp;P1;durP1;ratioP1;P2;durP2;ratioP2
24681;SDS011;12802;53.390;-2.328;2023-03-08T00:01:10;10.30;;;3.22;;
24681;SDS011;12802;53.390;-2.328;2023-03-08T00:03:37;11.32;;;4.50;;
24681;SDS011;12802;53.390;-2.328;2023-03-08T00:06:04;9.02;;;4.10;;
24681;SDS011;12802;53.390;-2.328;2023-03-08T00:08:30;6.63;;;3.90;;
24681;SDS011;12802;53.390;-2.328;2023-03-08T00:10:56;8.60;;;4.22;;
24681;SDS011;12802;53.390;-2.328;2023-03-08T00:13:21;10.05;;;4.15;;
24681;SDS011;12802;53.390;-2.328;2023-03-08T00:15:47;9.05;;;4.40;;
24681;SDS011;12802;53.390;-2.328;2023-03-08T00:18:13;6.82;;;3.63;;
24681;SDS011;12802;53.390;-2.328;2023-03-08T00:20:39;10.02;;;3.60;;
24681;SDS011;12802;53.390;-2.328;2023-03-08T00:23:04;12.63;;;4.63;;
24681;SDS011;12802;53.390;-2.328;2023-03-08T00:25:32;11.23;;;4.10;;
24681;SDS011;12802;53.390;-2.328;2023-03-08T00:27:58;11.25;;;4.95;;
24681;SDS011;12802;53.390;-2.328;2023-03-08T00:30:23;8.52;;;4.35;;
24681;SDS011;12802;53.390;-2.328;2023-03-08T00:32:50;9.73;;;5.05;;
24681;SDS011;12802;53.390;-2.328;2023-03-08T00:35:15;9.55;;;5.03;;
24681;SDS011;12802;53.390;-2.328;2023-03-08T00:37:44;10.27;;;4.38;;
24681;SDS011;12802;53.390;-2.328;2023-03-08T00:40:10;8.48;;;4.43;;
24681;SDS011;12802;53.390;-2.328;2023-03-08T00:42:36;6.20;;;4.18;;
24681;SDS011;12802;53.390;-2.328;2023-03-08T00:45:02;11.43;;;4.95;;
24681;SDS011;12802;53.390;-2.328;2023-03-08T00:47:28;11.90;;;5.80;;
24681;SDS011;12802;53.390;-2.328;2023-03-08T00:49:54;8.32;;;3.92;;
24681;SDS011;12802;53.390;-2.328;2023-03-08T00:52:20;10.73;;;4.22;;
24681;SDS011;12802;53.390;-2.328;2023-03-08T00:54:45;13.13;;;4.80;;
24681;SDS011;12802;53.390;-2.328;2023-03-08T00:57:11;11.07;;;4.28;;
24681;SDS011;12802;53.390;-2.328;2023-03-08T00:59:37;8.32;;;4.38;;
24681;SDS011;12802;53.390;-2.328;2023-03-08T01:02:03;11.25;;;4.40;;
24681;SDS011;12802;53.390;-2.328;2023-03-08T01:04:31;8.40;;;3.85;;
24681;SDS011;12802;53.390;-2.328;2023-03-08T01:06:57;13.00;;;4.40;;
24681;SDS011;12802;53.390;-2.328;2023-03-08T01:09:24;8.65;;;4.43;;
24681;SDS011;12802;53.390;-2.328;2023-03-08T01:11:49;10.68;;;4.18;;
24681;SDS011;12802;53.390;-2.328;2023-03-08T01:14:15;7.65;;;4.35;;
24681;SDS011;12802;53.390;-2.328;2023-03-08T01:16:41;8.00;;;4.45;;
24681;SDS011;12802;53.390;-2.328;2023-03-08T01:19:08;11.05;;;5.03;;
24681;SDS011;12802;53.390;-2.328;2023-03-08T01:21:34;12.63;;;5.55;;
24681;SDS011;12802;53.390;-2.328;2023-03-08T01:24:00;5.85;;;4.55;;
24681;SDS011;12802;53.390;-2.328;2023-03-08T01:26:26;13.30;;;5.28;;
24681;SDS011;12802;53.390;-2.328;2023-03-08T01:28:55;9.07;;;4.55;;
24681;SDS011;12802;53.390;-2.328;2023-03-08T01:31:22;8.65;;;5.03;;
24681;SDS011;12802;53.390;-2.328;2023-03-08T01:33:51;8.80;;;4.55;;
24681;SDS011;12802;53.390;-2.328;2023-03-08T01:36:19;6.28;;;3.83;;
24681;SDS011;12802;53.390;-2.328;2023-03-08T01:38:46;8.73;;;4.30;;
24681;SDS011;12802;53.390;-2.328;2023-03-08T01:41:14;9.00;;;4.28;;
24681;SDS011;12802;53.390;-2.328;2023-03-08T01:43:45;7.60;;;3.80;;
24681;SDS011;12802;53.390;-2.328;2023-03-08T01:46:16;6.28;;;3.67;;
24681;SDS011;12802;53.390;-2.328;2023-03-08T01:51:23;9.82;;;4.13;;
24681;SDS011;12802;53.390;-2.328;2023-03-08T01:53:54;5.05;;;2.97;;
24681;SDS011;12802;53.390;-2.328;2023-03-08T01:56:21;8.25;;;4.07;;
24681;SDS011;12802;53.390;-2.328;2023-03-08T01:58:49;8.43;;;3.75;;
24681;SDS011;12802;53.390;-2.328;2023-03-08T02:01:16;5.07;;;3.05;;
24681;SDS011;12802;53.390;-2.328;2023-03-08T02:03:43;10.55;;;3.30;;
24681;SDS011;12802;53.390;-2.328;2023-03-08T02:06:10;13.25;;;2.78;;
24681;SDS011;12802;53.390;-2.328;2023-03-08T02:08:38;11.23;;;3.38;;
24681;SDS011;12802;53.390;-2.328;2023-03-08T02:11:05;3.88;;;2.72;;
24681;SDS011;12802;53.390;-2.328;2023-03-08T02:13:32;7.05;;;3.22;;
24681;SDS011;12802;53.390;-2.328;2023-03-08T02:15:58;7.43;;;2.42;;
24681;SDS011;12802;53.390;-2.328;2023-03-08T02:18:26;7.40;;;2.60;;
24681;SDS011;12802;53.390;-2.328;2023-03-08T02:20:52;5.07;;;3.03;;
24681;SDS011;12802;53.390;-2.328;2023-03-08T02:23:22;5.05;;;2.78;;
24681;SDS011;12802;53.390;-2.328;2023-03-08T02:25:50;6.55;;;2.75;;
24681;SDS011;12802;53.390;-2.328;2023-03-08T02:28:21;5.32;;;1.90;;
24681;SDS011;12802;53.390;-2.328;2023-03-08T02:30:51;5.57;;;2.22;;
24681;SDS011;12802;53.390;-2.328;2023-03-08T02:33:18;6.53;;;2.67;;
24681;SDS011;12802;53.390;-2.328;2023-03-08T02:35:44;4.78;;;2.55;;
24681;SDS011;12802;53.390;-2.328;2023-03-08T02:38:11;6.47;;;2.80;;
24681;SDS011;12802;53.390;-2.328;2023-03-08T02:40:39;5.18;;;2.53;;
24681;SDS011;12802;53.390;-2.328;2023-03-08T02:43:05;5.45;;;2.03;;
24681;SDS011;12802;53.390;-2.328;2023-03-08T02:45:32;6.38;;;2.50;;
24681;SDS011;12802;53.390;-2.328;2023-03-08T02:48:00;9.10;;;1.77;;
24681;SDS011;12802;53.390;-2.328;2023-03-08T02:50:27;3.53;;;2.10;;
24681;SDS011;12802;53.390;-2.328;2023-03-08T02:52:53;1.80;;;1.50;;
24681;SDS011;12802;53.390;-2.328;2023-03-08T02:55:19;3.28;;;1.77;;
24681;SDS011;12802;53.390;-2.328;2023-03-08T02:57:45;7.70;;;2.13;;
24681;SDS011;12802;53.390;-2.328;2023-03-08T03:00:12;3.35;;;1.50;;
24681;SDS011;12802;53.390;-2.328;2023-03-08T03:02:38;5.18;;;1.77;;
24681;SDS011;12802;53.390;-2.328;2023-03-08T03:05:04;3.33;;;1.52;;
24681;SDS011;12802;53.390;-2.328;2023-03-08T03:07:36;3.58;;;1.70;;
24681;SDS011;12802;53.390;-2.328;2023-03-08T03:10:04;2.03;;;1.02;;
24681;SDS011;12802;53.390;-2.328;2023-03-08T03:12:30;8.98;;;2.03;;
24681;SDS011;12802;53.390;-2.328;2023-03-08T03:14:56;3.15;;;1.50;;
24681;SDS011;12802;53.390;-2.328;2023-03-08T03:17:22;2.80;;;1.50;;
24681;SDS011;12802;53.390;-2.328;2023-03-08T03:19:48;2.25;;;1.30;;
24681;SDS011;12802;53.390;-2.328;2023-03-08T03:22:13;3.08;;;1.80;;
24681;SDS011;12802;53.390;-2.328;2023-03-08T03:24:39;3.67;;;1.98;;
24681;SDS011;12802;53.390;-2.328;2023-03-08T03:27:06;2.70;;;1.45;;
24681;SDS011;12802;53.390;-2.328;2023-03-08T03:29:33;2.10;;;1.50;;
24681;SDS011;12802;53.390;-2.328;2023-03-08T03:32:20;2.67;;;1.50;;
24681;SDS011;12802;53.390;-2.328;2023-03-08T03:34:45;2.05;;;1.02;;
24681;SDS011;12802;53.390;-2.328;2023-03-08T03:37:13;7.28;;;1.20;;
24681;SDS011;12802;53.390;-2.328;2023-03-08T03:39:39;2.50;;;1.08;;
24681;SDS011;12802;53.390;-2.328;2023-03-08T03:42:08;4.07;;;1.23;;
24681;SDS011;12802;53.390;-2.328;2023-03-08T03:44:37;2.20;;;1.03;;
24681;SDS011;12802;53.390;-2.328;2023-03-08T03:47:03;3.05;;;0.82;;
24681;SDS011;12802;53.390;-2.328;2023-03-08T03:49:29;2.47;;;0.70;;
24681;SDS011;12802;53.390;-2.328;2023-03-08T03:51:55;1.58;;;0.80;;
24681;SDS011;12802;53.390;-2.328;2023-03-08T03:54:24;2.97;;;1.27;;
24681;SDS011;12802;53.390;-2.328;2023-03-08T03:59:23;1.63;;;0.77;;
24681;SDS011;12802;53.390;-2.328;2023-03-08T04:01:49;5.80;;;0.90;;
24681;SDS011;12802;53.390;-2.328;2023-03-08T04:04:21;6.15;;;1.55;;
24681;SDS011;12802;53.390;-2.328;2023-03-08T04:06:47;4.95;;;1.10;;
24681;SDS011;12802;53.390;-2.328;2023-03-08T04:09:16;1.80;;;0.75;;
24681;SDS011;12802;53.390;-2.328;2023-03-08T04:11:48;8.38;;;1.20;;
24681;SDS011;12802;53.390;-2.328;2023-03-08T04:14:17;2.45;;;0.85;;
24681;SDS011;12802;53.390;-2.328;2023-03-08T04:16:43;6.05;;;1.05;;
24681;SDS011;12802;53.390;-2.328;2023-03-08T04:19:21;3.40;;;1.30;;
24681;SDS011;12802;53.390;-2.328;2023-03-08T04:24:19;1.38;;;1.10;;
24681;SDS011;12802;53.390;-2.328;2023-03-08T04:29:17;3.47;;;1.55;;
24681;SDS011;12802;53.390;-2.328;2023-03-08T04:31:43;1.80;;;0.90;;
24681;SDS011;12802;53.390;-2.328;2023-03-08T04:34:12;3.63;;;0.63;;
24681;SDS011;12802;53.390;-2.328;2023-03-08T04:36:39;7.03;;;0.98;;
24681;SDS011;12802;53.390;-2.328;2023-03-08T04:39:06;2.42;;;0.65;;
24681;SDS011;12802;53.390;-2.328;2023-03-08T04:41:32;3.90;;;1.40;;
24681;SDS011;12802;53.390;-2.328;2023-03-08T04:44:09;7.32;;;1.13;;
24681;SDS011;12802;53.390;-2.328;2023-03-08T04:46:39;1.20;;;0.60;;
24681;SDS011;12802;53.390;-2.328;2023-03-08T04:49:06;1.25;;;0.77;;
24681;SDS011;12802;53.390;-2.328;2023-03-08T04:51:38;2.15;;;1.20;;
24681;SDS011;12802;53.390;-2.328;2023-03-08T04:54:06;5.93;;;0.90;;
24681;SDS011;12802;53.390;-2.328;2023-03-08T04:56:36;7.47;;;1.20;;
24681;SDS011;12802;53.390;-2.328;2023-03-08T04:59:02;2.95;;;0.90;;
24681;SDS011;12802;53.390;-2.328;2023-03-08T05:01:29;1.83;;;0.80;;
24681;SDS011;12802;53.390;-2.328;2023-03-08T05:03:55;2.30;;;0.80;;
24681;SDS011;12802;53.390;-2.328;2023-03-08T05:06:29;8.18;;;1.17;;
24681;SDS011;12802;53.390;-2.328;2023-03-08T05:08:56;1.95;;;1.00;;
24681;SDS011;12802;53.390;-2.328;2023-03-08T05:11:25;2.47;;;0.93;;
24681;SDS011;12802;53.390;-2.328;2023-03-08T05:13:53;1.80;;;1.00;;
24681;SDS011;12802;53.390;-2.328;2023-03-08T05:16:21;3.42;;;1.13;;
24681;SDS011;12802;53.390;-2.328;2023-03-08T05:18:48;9.70;;;1.02;;
24681;SDS011;12802;53.390;-2.328;2023-03-08T05:21:17;1.90;;;0.95;;
24681;SDS011;12802;53.390;-2.328;2023-03-08T05:23:49;7.50;;;1.45;;
24681;SDS011;12802;53.390;-2.328;2023-03-08T05:26:17;2.17;;;0.95;;
24681;SDS011;12802;53.390;-2.328;2023-03-08T05:28:43;3.03;;;0.85;;
24681;SDS011;12802;53.390;-2.328;2023-03-08T05:31:14;2.92;;;0.93;;
24681;SDS011;12802;53.390;-2.328;2023-03-08T05:33:45;2.42;;;1.17;;
24681;SDS011;12802;53.390;-2.328;2023-03-08T05:36:16;0.43;;;0.43;;
24681;SDS011;12802;53.390;-2.328;2023-03-08T05:38:43;3.90;;;1.10;;
24681;SDS011;12802;53.390;-2.328;2023-03-08T05:41:11;4.70;;;1.05;;
24681;SDS011;12802;53.390;-2.328;2023-03-08T05:43:40;4.00;;;1.23;;
24681;SDS011;12802;53.390;-2.328;2023-03-08T05:46:12;2.40;;;1.13;;
24681;SDS011;12802;53.390;-2.328;2023-03-08T05:48:41;2.47;;;1.30;;
24681;SDS011;12802;53.390;-2.328;2023-03-08T05:51:13;1.63;;;1.02;;
24681;SDS011;12802;53.390;-2.328;2023-03-08T05:53:41;7.47;;;1.25;;
24681;SDS011;12802;53.390;-2.328;2023-03-08T05:56:12;2.80;;;1.13;;
24681;SDS011;12802;53.390;-2.328;2023-03-08T05:58:45;6.43;;;1.55;;
24681;SDS011;12802;53.390;-2.328;2023-03-08T06:01:13;3.78;;;1.00;;
24681;SDS011;12802;53.390;-2.328;2023-03-08T06:03:43;2.97;;;0.90;;
24681;SDS011;12802;53.390;-2.328;2023-03-08T06:06:11;3.17;;;1.13;;
24681;SDS011;12802;53.390;-2.328;2023-03-08T06:08:38;5.75;;;1.58;;
24681;SDS011;12802;53.390;-2.328;2023-03-08T06:11:06;5.15;;;1.17;;
24681;SDS011;12802;53.390;-2.328;2023-03-08T06:13:32;5.75;;;1.42;;
24681;SDS011;12802;53.390;-2.328;2023-03-08T06:15:59;2.70;;;1.42;;
24681;SDS011;12802;53.390;-2.328;2023-03-08T06:18:26;2.22;;;1.05;;
24681;SDS011;12802;53.390;-2.328;2023-03-08T06:20:56;3.67;;;1.48;;
24681;SDS011;12802;53.390;-2.328;2023-03-08T06:23:27;3.17;;;1.40;;
24681;SDS011;12802;53.390;-2.328;2023-03-08T06:25:54;2.50;;;1.48;;
24681;SDS011;12802;53.390;-2.328;2023-03-08T06:28:21;8.80;;;2.03;;
24681;SDS011;12802;53.390;-2.328;2023-03-08T06:30:47;4.78;;;1.60;;
24681;SDS011;12802;53.390;-2.328;2023-03-08T06:33:16;3.43;;;1.50;;
24681;SDS011;12802;53.390;-2.328;2023-03-08T06:36:00;2.85;;;1.70;;
24681;SDS011;12802;53.390;-2.328;2023-03-08T06:40:52;7.55;;;2.28;;
24681;SDS011;12802;53.390;-2.328;2023-03-08T06:43:18;4.78;;;1.75;;
24681;SDS011;12802;53.390;-2.328;2023-03-08T06:45:44;3.75;;;1.90;;
24681;SDS011;12802;53.390;-2.328;2023-03-08T06:48:11;4.30;;;1.30;;
24681;SDS011;12802;53.390;-2.328;2023-03-08T06:50:37;4.63;;;1.73;;
24681;SDS011;12802;53.390;-2.328;2023-03-08T06:53:03;4.85;;;1.88;;
24681;SDS011;12802;53.390;-2.328;2023-03-08T06:55:53;5.82;;;2.00;;
24681;SDS011;12802;53.390;-2.328;2023-03-08T06:58:19;7.57;;;2.65;;
24681;SDS011;12802;53.390;-2.328;2023-03-08T07:00:45;3.65;;;2.17;;
24681;SDS011;12802;53.390;-2.328;2023-03-08T07:03:11;5.90;;;2.58;;
24681;SDS011;12802;53.390;-2.328;2023-03-08T07:05:37;12.95;;;2.60;;
24681;SDS011;12802;53.390;-2.328;2023-03-08T07:08:03;3.08;;;2.33;;
24681;SDS011;12802;53.390;-2.328;2023-03-08T07:10:29;5.75;;;3.13;;
24681;SDS011;12802;53.390;-2.328;2023-03-08T07:12:55;8.30;;;2.67;;
24681;SDS011;12802;53.390;-2.328;2023-03-08T07:15:21;11.07;;;3.03;;
24681;SDS011;12802;53.390;-2.328;2023-03-08T07:17:49;8.75;;;2.88;;
24681;SDS011;12802;53.390;-2.328;2023-03-08T07:20:17;7.40;;;4.13;;
24681;SDS011;12802;53.390;-2.328;2023-03-08T07:22:44;12.02;;;3.30;;
24681;SDS011;12802;53.390;-2.328;2023-03-08T07:25:11;15.70;;;3.97;;
24681;SDS011;12802;53.390;-2.328;2023-03-08T07:27:37;11.50;;;3.47;;
24681;SDS011;12802;53.390;-2.328;2023-03-08T07:30:03;9.15;;;5.10;;
24681;SDS011;12802;53.390;-2.328;2023-03-08T07:32:30;11.30;;;4.30;;
24681;SDS011;12802;53.390;-2.328;2023-03-08T07:34:55;13.57;;;4.13;;
24681;SDS011;12802;53.390;-2.328;2023-03-08T07:37:21;8.18;;;3.95;;
24681;SDS011;12802;53.390;-2.328;2023-03-08T07:39:47;8.75;;;4.20;;
24681;SDS011;12802;53.390;-2.328;2023-03-08T07:42:13;9.50;;;3.95;;
24681;SDS011;12802;53.390;-2.328;2023-03-08T07:44:42;15.05;;;4.43;;
24681;SDS011;12802;53.390;-2.328;2023-03-08T07:47:08;5.80;;;3.80;;
24681;SDS011;12802;53.390;-2.328;2023-03-08T07:49:34;7.10;;;4.13;;
24681;SDS011;12802;53.390;-2.328;2023-03-08T07:52:00;7.00;;;4.53;;
24681;SDS011;12802;53.390;-2.328;2023-03-08T07:54:26;15.82;;;4.07;;
24681;SDS011;12802;53.390;-2.328;2023-03-08T07:56:52;9.13;;;3.95;;
24681;SDS011;12802;53.390;-2.328;2023-03-08T07:59:20;9.15;;;4.32;;
24681;SDS011;12802;53.390;-2.328;2023-03-08T08:01:46;8.48;;;3.90;;
24681;SDS011;12802;53.390;-2.328;2023-03-08T08:04:12;9.93;;;4.22;;
24681;SDS011;12802;53.390;-2.328;2023-03-08T08:06:38;8.32;;;3.88;;
24681;SDS011;12802;53.390;-2.328;2023-03-08T08:09:05;6.78;;;3.92;;
24681;SDS011;12802;53.390;-2.328;2023-03-08T08:11:31;12.75;;;5.15;;
24681;SDS011;12802;53.390;-2.328;2023-03-08T08:13:58;29.75;;;4.50;;
24681;SDS011;12802;53.390;-2.328;2023-03-08T08:16:24;10.45;;;3.83;;
24681;SDS011;12802;53.390;-2.328;2023-03-08T08:18:51;5.65;;;3.45;;
24681;SDS011;12802;53.390;-2.328;2023-03-08T08:21:17;11.35;;;4.13;;
24681;SDS011;12802;53.390;-2.328;2023-03-08T08:23:43;12.25;;;4.63;;
24681;SDS011;12802;53.390;-2.328;2023-03-08T08:26:11;7.35;;;3.95;;
24681;SDS011;12802;53.390;-2.328;2023-03-08T08:28:42;17.65;;;4.18;;
24681;SDS011;12802;53.390;-2.328;2023-03-08T08:31:10;10.90;;;3.95;;
24681;SDS011;12802;53.390;-2.328;2023-03-08T08:33:38;7.28;;;3.33;;
24681;SDS011;12802;53.390;-2.328;2023-03-08T08:36:05;8.32;;;4.25;;
24681;SDS011;12802;53.390;-2.328;2023-03-08T08:38:32;9.63;;;4.15;;
24681;SDS011;12802;53.390;-2.328;2023-03-08T08:40:58;8.70;;;4.20;;
24681;SDS011;12802;53.390;-2.328;2023-03-08T08:43:25;15.55;;;5.13;;
24681;SDS011;12802;53.390;-2.328;2023-03-08T08:45:52;6.68;;;4.43;;
24681;SDS011;12802;53.390;-2.328;2023-03-08T08:48:20;9.27;;;4.80;;
24681;SDS011;12802;53.390;-2.328;2023-03-08T08:50:45;15.75;;;5.28;;
24681;SDS011;12802;53.390;-2.328;2023-03-08T08:53:11;14.57;;;5.13;;
24681;SDS011;12802;53.390;-2.328;2023-03-08T08:55:37;10.07;;;4.75;;
24681;SDS011;12802;53.390;-2.328;2023-03-08T08:58:03;7.45;;;4.60;;
24681;SDS011;12802;53.390;-2.328;2023-03-08T09:00:30;7.40;;;4.57;;
24681;SDS011;12802;53.390;-2.328;2023-03-08T09:02:58;15.73;;;5.68;;
24681;SDS011;12802;53.390;-2.328;2023-03-08T09:05:24;7.90;;;4.90;;
24681;SDS011;12802;53.390;-2.328;2023-03-08T09:07:53;13.00;;;5.32;;
24681;SDS011;12802;53.390;-2.328;2023-03-08T09:10:23;9.60;;;5.30;;
24681;SDS011;12802;53.390;-2.328;2023-03-08T09:12:49;11.73;;;5.38;;
24681;SDS011;12802;53.390;-2.328;2023-03-08T09:15:15;11.35;;;4.93;;
24681;SDS011;12802;53.390;-2.328;2023-03-08T09:17:41;10.18;;;4.38;;
24681;SDS011;12802;53.390;-2.328;2023-03-08T09:20:07;13.52;;;4.75;;
24681;SDS011;12802;53.390;-2.328;2023-03-08T09:22:34;11.63;;;5.40;;
24681;SDS011;12802;53.390;-2.328;2023-03-08T09:25:01;9.27;;;5.22;;
24681;SDS011;12802;53.390;-2.328;2023-03-08T09:27:28;12.20;;;5.25;;
24681;SDS011;12802;53.390;-2.328;2023-03-08T09:29:54;10.85;;;5.15;;
24681;SDS011;12802;53.390;-2.328;2023-03-08T09:32:20;9.00;;;5.20;;
24681;SDS011;12802;53.390;-2.328;2023-03-08T09:34:45;10.25;;;6.25;;
24681;SDS011;12802;53.390;-2.328;2023-03-08T09:37:11;9.10;;;5.43;;
24681;SDS011;12802;53.390;-2.328;2023-03-08T09:39:37;15.18;;;4.65;;
24681;SDS011;12802;53.390;-2.328;2023-03-08T09:42:04;10.50;;;5.03;;
24681;SDS011;12802;53.390;-2.328;2023-03-08T09:50:23;8.38;;;4.70;;
24681;SDS011;12802;53.390;-2.328;2023-03-08T09:55:26;6.35;;;4.63;;
24681;SDS011;12802;53.390;-2.328;2023-03-08T09:58:01;8.77;;;4.50;;
24681;SDS011;12802;53.390;-2.328;2023-03-08T10:00:35;18.10;;;6.43;;
24681;SDS011;12802;53.390;-2.328;2023-03-08T10:09:17;9.52;;;5.07;;
24681;SDS011;12802;53.390;-2.328;2023-03-08T10:12:00;11.35;;;4.82;;
24681;SDS011;12802;53.390;-2.328;2023-03-08T10:14:41;7.55;;;4.15;;
24681;SDS011;12802;53.390;-2.328;2023-03-08T10:17:14;7.68;;;5.22;;
24681;SDS011;12802;53.390;-2.328;2023-03-08T10:19:50;6.75;;;4.35;;
24681;SDS011;12802;53.390;-2.328;2023-03-08T10:22:26;10.05;;;4.78;;
24681;SDS011;12802;53.390;-2.328;2023-03-08T10:25:14;12.93;;;3.83;;
24681;SDS011;12802;53.390;-2.328;2023-03-08T10:27:43;7.28;;;3.72;;
24681;SDS011;12802;53.390;-2.328;2023-03-08T10:30:15;6.78;;;3.95;;
24681;SDS011;12802;53.390;-2.328;2023-03-08T10:32:44;5.40;;;3.65;;
24681;SDS011;12802;53.390;-2.328;2023-03-08T10:35:13;9.07;;;4.13;;
24681;SDS011;12802;53.390;-2.328;2023-03-08T10:37:39;6.35;;;3.88;;
24681;SDS011;12802;53.390;-2.328;2023-03-08T10:40:07;7.88;;;4.18;;
24681;SDS011;12802;53.390;-2.328;2023-03-08T10:42:35;8.45;;;4.35;;
24681;SDS011;12802;53.390;-2.328;2023-03-08T10:45:02;13.43;;;4.32;;
24681;SDS011;12802;53.390;-2.328;2023-03-08T10:47:38;6.10;;;4.00;;
24681;SDS011;12802;53.390;-2.328;2023-03-08T10:50:09;8.95;;;3.65;;
24681;SDS011;12802;53.390;-2.328;2023-03-08T10:52:38;5.10;;;3.72;;
24681;SDS011;12802;53.390;-2.328;2023-03-08T10:55:15;6.55;;;3.72;;
24681;SDS011;12802;53.390;-2.328;2023-03-08T11:02:45;5.93;;;3.22;;
24681;SDS011;12802;53.390;-2.328;2023-03-08T11:05:19;5.75;;;3.38;;
24681;SDS011;12802;53.390;-2.328;2023-03-08T11:07:59;5.68;;;2.75;;
24681;SDS011;12802;53.390;-2.328;2023-03-08T11:10:26;4.45;;;2.90;;
24681;SDS011;12802;53.390;-2.328;2023-03-08T11:15:47;4.35;;;3.20;;
24681;SDS011;12802;53.390;-2.328;2023-03-08T11:18:32;5.43;;;2.65;;
24681;SDS011;12802;53.390;-2.328;2023-03-08T11:21:09;9.48;;;3.08;;
24681;SDS011;12802;53.390;-2.328;2023-03-08T11:24:04;11.10;;;3.00;;
24681;SDS011;12802;53.390;-2.328;2023-03-08T11:29:31;5.57;;;3.28;;
24681;SDS011;12802;53.390;-2.328;2023-03-08T11:40:38;6.97;;;3.45;;
24681;SDS011;12802;53.390;-2.328;2023-03-08T11:46:08;5.82;;;2.85;;
24681;SDS011;12802;53.390;-2.328;2023-03-08T11:49:00;6.22;;;3.45;;
24681;SDS011;12802;53.390;-2.328;2023-03-08T11:57:21;7.70;;;4.00;;
24681;SDS011;12802;53.390;-2.328;2023-03-08T11:59:51;5.20;;;3.60;;
24681;SDS011;12802;53.390;-2.328;2023-03-08T12:02:26;5.00;;;3.38;;
24681;SDS011;12802;53.390;-2.328;2023-03-08T12:07:46;7.18;;;3.38;;
24681;SDS011;12802;53.390;-2.328;2023-03-08T12:10:24;14.02;;;3.65;;
24681;SDS011;12802;53.390;-2.328;2023-03-08T12:12:56;6.93;;;3.67;;
24681;SDS011;12802;53.390;-2.328;2023-03-08T12:15:33;6.07;;;3.70;;
24681;SDS011;12802;53.390;-2.328;2023-03-08T12:20:38;5.60;;;3.70;;
24681;SDS011;12802;53.390;-2.328;2023-03-08T12:23:17;7.20;;;4.05;;
24681;SDS011;12802;53.390;-2.328;2023-03-08T12:26:03;7.72;;;4.50;;
24681;SDS011;12802;53.390;-2.328;2023-03-08T12:28:42;6.10;;;4.18;;
24681;SDS011;12802;53.390;-2.328;2023-03-08T12:33:54;7.50;;;4.15;;
24681;SDS011;12802;53.390;-2.328;2023-03-08T12:36:34;9.55;;;4.80;;
24681;SDS011;12802;53.390;-2.328;2023-03-08T12:39:06;5.53;;;3.97;;
24681;SDS011;12802;53.390;-2.328;2023-03-08T12:41:57;9.85;;;4.30;;
24681;SDS011;12802;53.390;-2.328;2023-03-08T12:44:24;8.77;;;4.70;;
24681;SDS011;12802;53.390;-2.328;2023-03-08T12:46:53;7.57;;;4.18;;
24681;SDS011;12802;53.390;-2.328;2023-03-08T12:49:34;7.10;;;3.67;;
24681;SDS011;12802;53.390;-2.328;2023-03-08T12:52:04;8.27;;;3.40;;
24681;SDS011;12802;53.390;-2.328;2023-03-08T12:54:43;8.43;;;4.20;;
24681;SDS011;12802;53.390;-2.328;2023-03-08T12:57:21;16.33;;;4.65;;
24681;SDS011;12802;53.390;-2.328;2023-03-08T12:59:58;11.57;;;4.72;;
24681;SDS011;12802;53.390;-2.328;2023-03-08T13:02:56;9.45;;;5.80;;
24681;SDS011;12802;53.390;-2.328;2023-03-08T13:05:30;9.57;;;5.75;;
24681;SDS011;12802;53.390;-2.328;2023-03-08T13:10:52;11.55;;;6.00;;
24681;SDS011;12802;53.390;-2.328;2023-03-08T13:18:44;9.80;;;5.88;;
24681;SDS011;12802;53.390;-2.328;2023-03-08T13:21:15;9.75;;;5.57;;
24681;SDS011;12802;53.390;-2.328;2023-03-08T13:23:50;9.05;;;5.38;;
24681;SDS011;12802;53.390;-2.328;2023-03-08T13:26:47;9.23;;;6.05;;
24681;SDS011;12802;53.390;-2.328;2023-03-08T13:29:31;10.25;;;5.80;;
24681;SDS011;12802;53.390;-2.328;2023-03-08T13:32:03;14.65;;;6.25;;
24681;SDS011;12802;53.390;-2.328;2023-03-08T13:34:36;10.40;;;5.85;;
24681;SDS011;12802;53.390;-2.328;2023-03-08T13:37:02;9.82;;;6.25;;
24681;SDS011;12802;53.390;-2.328;2023-03-08T13:39:29;11.15;;;6.10;;
24681;SDS011;12802;53.390;-2.328;2023-03-08T13:42:05;11.63;;;6.80;;
24681;SDS011;12802;53.390;-2.328;2023-03-08T13:44:33;10.00;;;6.90;;
24681;SDS011;12802;53.390;-2.328;2023-03-08T13:47:03;18.27;;;8.90;;
24681;SDS011;12802;53.390;-2.328;2023-03-08T13:49:42;12.77;;;8.52;;
24681;SDS011;12802;53.390;-2.328;2023-03-08T13:52:14;17.58;;;9.60;;
24681;SDS011;12802;53.390;-2.328;2023-03-08T13:54:48;13.13;;;8.82;;
24681;SDS011;12802;53.390;-2.328;2023-03-08T13:57:23;15.20;;;9.68;;
24681;SDS011;12802;53.390;-2.328;2023-03-08T13:59:56;15.48;;;9.73;;
24681;SDS011;12802;53.390;-2.328;2023-03-08T14:02:25;16.10;;;8.73;;
24681;SDS011;12802;53.390;-2.328;2023-03-08T14:04:55;14.35;;;8.65;;
24681;SDS011;12802;53.390;-2.328;2023-03-08T14:07:25;15.57;;;9.07;;
24681;SDS011;12802;53.390;-2.328;2023-03-08T14:09:52;12.07;;;8.15;;
24681;SDS011;12802;53.390;-2.328;2023-03-08T14:12:19;19.33;;;8.65;;
24681;SDS011;12802;53.390;-2.328;2023-03-08T14:14:50;17.20;;;9.55;;
24681;SDS011;12802;53.390;-2.328;2023-03-08T14:17:22;18.33;;;9.00;;
24681;SDS011;12802;53.390;-2.328;2023-03-08T14:20:01;17.15;;;10.35;;
24681;SDS011;12802;53.390;-2.328;2023-03-08T14:22:31;15.45;;;10.02;;
24681;SDS011;12802;53.390;-2.328;2023-03-08T14:25:00;14.57;;;7.65;;
24681;SDS011;12802;53.390;-2.328;2023-03-08T14:27:31;12.98;;;8.05;;
24681;SDS011;12802;53.390;-2.328;2023-03-08T14:30:07;10.63;;;7.03;;
24681;SDS011;12802;53.390;-2.328;2023-03-08T14:32:55;10.52;;;5.93;;
24681;SDS011;12802;53.390;-2.328;2023-03-08T14:35:23;13.48;;;7.50;;
24681;SDS011;12802;53.390;-2.328;2023-03-08T14:37:51;13.88;;;6.38;;
24681;SDS011;12802;53.390;-2.328;2023-03-08T14:40:28;8.65;;;6.03;;
24681;SDS011;12802;53.390;-2.328;2023-03-08T14:42:56;11.95;;;7.28;;
24681;SDS011;12802;53.390;-2.328;2023-03-08T14:45:31;10.05;;;5.60;;
24681;SDS011;12802;53.390;-2.328;2023-03-08T14:50:55;15.57;;;7.07;;
24681;SDS011;12802;53.390;-2.328;2023-03-08T14:53:54;11.30;;;7.53;;
24681;SDS011;12802;53.390;-2.328;2023-03-08T14:56:20;15.10;;;7.65;;
24681;SDS011;12802;53.390;-2.328;2023-03-08T14:58:46;15.85;;;8.68;;
24681;SDS011;12802;53.390;-2.328;2023-03-08T15:01:28;12.60;;;8.73;;
24681;SDS011;12802;53.390;-2.328;2023-03-08T15:03:55;18.98;;;9.75;;
24681;SDS011;12802;53.390;-2.328;2023-03-08T15:06:22;22.55;;;9.80;;
24681;SDS011;12802;53.390;-2.328;2023-03-08T15:08:50;11.18;;;7.47;;
24681;SDS011;12802;53.390;-2.328;2023-03-08T15:11:17;14.60;;;8.00;;
24681;SDS011;12802;53.390;-2.328;2023-03-08T15:13:42;11.10;;;7.45;;
24681;SDS011;12802;53.390;-2.328;2023-03-08T15:16:10;14.85;;;7.15;;
24681;SDS011;12802;53.390;-2.328;2023-03-08T15:18:36;10.82;;;7.13;;
24681;SDS011;12802;53.390;-2.328;2023-03-08T15:21:02;13.27;;;7.25;;
24681;SDS011;12802;53.390;-2.328;2023-03-08T15:23:32;14.82;;;8.07;;
24681;SDS011;12802;53.390;-2.328;2023-03-08T15:26:02;13.52;;;7.05;;
24681;SDS011;12802;53.390;-2.328;2023-03-08T15:28:30;14.82;;;7.40;;
24681;SDS011;12802;53.390;-2.328;2023-03-08T15:30:56;8.40;;;5.80;;
24681;SDS011;12802;53.390;-2.328;2023-03-08T15:33:22;10.43;;;5.53;;
24681;SDS011;12802;53.390;-2.328;2023-03-08T15:35:48;7.18;;;4.55;;
24681;SDS011;12802;53.390;-2.328;2023-03-08T15:38:15;10.50;;;4.97;;
24681;SDS011;12802;53.390;-2.328;2023-03-08T15:40:42;6.93;;;3.95;;
24681;SDS011;12802;53.390;-2.328;2023-03-08T15:43:08;8.85;;;4.43;;
24681;SDS011;12802;53.390;-2.328;2023-03-08T15:45:34;8.35;;;4.03;;
24681;SDS011;12802;53.390;-2.328;2023-03-08T15:48:02;6.57;;;4.13;;
24681;SDS011;12802;53.390;-2.328;2023-03-08T15:50:29;5.22;;;4.03;;
24681;SDS011;12802;53.390;-2.328;2023-03-08T15:52:57;6.63;;;4.38;;
24681;SDS011;12802;53.390;-2.328;2023-03-08T15:55:25;7.13;;;4.13;;
24681;SDS011;12802;53.390;-2.328;2023-03-08T15:57:52;8.13;;;4.13;;